createdAt,value
2023-04-27T00:00:29.287Z,84.22
2023-04-27T00:01:29.252Z,84.24
2023-04-27T00:02:29.339Z,84.27
2023-04-27T00:03:29.359Z,83.46
2023-04-27T00:04:29.489Z,83.12
2023-04-27T00:05:29.305Z,83.52
2023-04-27T00:06:29.169Z,84.89
2023-04-27T00:07:29.161Z,84.53
2023-04-27T00:08:29.156Z,82.69
2023-04-27T00:09:29.178Z,83.68
2023-04-27T00:10:29.168Z,84.49
2023-04-27T00:11:29.204Z,83.92
2023-04-27T00:12:29.253Z,83.96
2023-04-27T00:13:29.295Z,82.90
2023-04-27T00:14:29.294Z,82.95
2023-04-27T00:15:29.296Z,83.07
2023-04-27T00:16:29.336Z,82.98
2023-04-27T00:17:29.301Z,83.76
2023-04-27T00:18:29.250Z,84.30
2023-04-27T00:19:29.244Z,83.59
2023-04-27T00:20:29.226Z,83.25
2023-04-27T00:21:29.220Z,84.17
2023-04-27T00:22:29.210Z,83.61
2023-04-27T00:23:29.200Z,83.19
2023-04-27T00:24:29.193Z,83.76
2023-04-27T00:25:29.238Z,83.44
2023-04-27T00:26:29.224Z,83.46
2023-04-27T00:27:29.235Z,83.50
2023-04-27T00:28:29.197Z,83.80
2023-04-27T00:29:29.195Z,83.05
2023-04-27T00:30:29.181Z,82.53
2023-04-27T00:31:29.228Z,82.71
2023-04-27T00:32:29.183Z,81.90
2023-04-27T00:33:29.148Z,81.46
2023-04-27T00:34:29.170Z,81.70
2023-04-27T00:35:29.163Z,83.62
2023-04-27T00:36:29.208Z,82.19
2023-04-27T00:37:29.263Z,82.85
2023-04-27T00:38:29.329Z,81.62
2023-04-27T00:39:29.387Z,82.11
2023-04-27T00:40:29.438Z,81.87
2023-04-27T00:41:29.490Z,81.65
2023-04-27T00:42:29.562Z,81.65
2023-04-27T00:43:29.611Z,80.84
2023-04-27T00:44:29.659Z,81.71
2023-04-27T00:45:29.726Z,82.84
2023-04-27T00:46:29.810Z,81.54
2023-04-27T00:47:29.874Z,81.46
2023-04-27T00:48:29.880Z,82.22
2023-04-27T00:49:29.936Z,81.22
2023-04-27T00:50:30.010Z,81.98
2023-04-27T00:51:30.050Z,81.57
2023-04-27T00:52:30.112Z,80.89
2023-04-27T00:53:30.160Z,81.73
2023-04-27T00:54:30.231Z,81.15
2023-04-27T00:55:30.296Z,81.91
2023-04-27T00:56:30.336Z,82.07
2023-04-27T00:57:30.404Z,80.76
2023-04-27T00:58:30.462Z,82.05
2023-04-27T00:59:30.504Z,82.14
2023-04-27T01:00:30.585Z,82.05
2023-04-27T01:01:30.637Z,81.90
2023-04-27T01:02:30.858Z,81.76
2023-04-27T01:03:30.785Z,80.19
2023-04-27T01:04:30.952Z,81.10
2023-04-27T01:05:32.597Z,80.17
2023-04-27T01:06:30.894Z,80.54
2023-04-27T01:07:30.966Z,81.77
2023-04-27T01:08:30.998Z,80.95
2023-04-27T01:09:31.064Z,80.13
2023-04-27T01:10:31.125Z,79.55
2023-04-27T01:11:31.172Z,80.28
2023-04-27T01:12:31.237Z,80.62
2023-04-27T01:13:31.284Z,81.91
2023-04-27T01:14:31.346Z,79.24
2023-04-27T01:15:31.384Z,80.35
2023-04-27T01:16:31.397Z,80.45
2023-04-27T01:17:31.393Z,80.55
2023-04-27T01:18:31.350Z,80.58
2023-04-27T01:19:31.341Z,81.05
2023-04-27T01:20:31.358Z,80.17
2023-04-27T01:21:31.327Z,80.41
2023-04-27T01:22:31.324Z,80.44
2023-04-27T01:23:31.322Z,80.60
2023-04-27T01:24:31.301Z,80.72
2023-04-27T01:25:31.292Z,80.48
2023-04-27T01:26:31.288Z,80.10
2023-04-27T01:27:31.267Z,79.10
2023-04-27T01:28:31.282Z,80.52
2023-04-27T01:29:31.248Z,81.55
2023-04-27T01:30:31.246Z,79.87
2023-04-27T01:31:31.283Z,79.04
2023-04-27T01:32:31.293Z,81.12
2023-04-27T01:33:31.284Z,79.78
2023-04-27T01:34:31.289Z,79.89
2023-04-27T01:35:31.275Z,80.09
2023-04-27T01:36:31.246Z,79.99
2023-04-27T01:37:31.246Z,80.43
2023-04-27T01:38:31.223Z,81.81
2023-04-27T01:39:31.216Z,80.39
2023-04-27T01:40:31.227Z,81.49
2023-04-27T01:41:31.192Z,80.18
2023-04-27T01:42:31.181Z,80.06
2023-04-27T01:43:31.190Z,79.83
2023-04-27T01:44:31.197Z,80.68
2023-04-27T01:45:31.275Z,80.45
2023-04-27T01:46:31.367Z,79.72
2023-04-27T01:47:31.393Z,80.00
2023-04-27T01:48:31.371Z,79.68
2023-04-27T01:49:31.429Z,79.35
2023-04-27T01:50:31.457Z,79.27
2023-04-27T01:51:31.483Z,78.52
2023-04-27T01:52:31.516Z,79.90
2023-04-27T01:53:31.563Z,80.56
2023-04-27T01:54:31.610Z,79.12
2023-04-27T01:55:31.669Z,80.62
2023-04-27T01:56:31.731Z,80.54
2023-04-27T01:57:31.778Z,78.55
2023-04-27T01:58:31.844Z,78.17
2023-04-27T01:59:31.904Z,79.83
2023-04-27T02:00:31.968Z,79.11
2023-04-27T02:01:32.055Z,81.35
2023-04-27T02:02:32.148Z,79.67
2023-04-27T02:03:32.276Z,79.93
2023-04-27T02:04:32.229Z,79.27
2023-04-27T02:05:32.237Z,78.73
2023-04-27T02:06:32.275Z,77.60
2023-04-27T02:07:32.324Z,77.92
2023-04-27T02:08:32.360Z,78.17
2023-04-27T02:09:32.363Z,79.25
2023-04-27T02:10:32.377Z,77.28
2023-04-27T02:11:32.397Z,77.57
2023-04-27T02:12:32.428Z,79.51
2023-04-27T02:13:32.475Z,78.72
2023-04-27T02:14:32.529Z,78.64
2023-04-27T02:15:32.603Z,77.36
2023-04-27T02:16:32.671Z,77.36
2023-04-27T02:17:32.706Z,79.16
2023-04-27T02:18:32.716Z,78.32
2023-04-27T02:19:32.747Z,79.42
2023-04-27T02:20:32.812Z,78.28
2023-04-27T02:21:32.835Z,78.88
2023-04-27T02:22:32.889Z,78.03
2023-04-27T02:23:32.958Z,77.90
2023-04-27T02:24:32.965Z,77.33
2023-04-27T02:25:33.068Z,78.52
2023-04-27T02:26:33.086Z,78.76
2023-04-27T02:27:33.190Z,77.56
2023-04-27T02:28:33.242Z,78.24
2023-04-27T02:29:33.239Z,77.61
2023-04-27T02:30:33.274Z,78.93
2023-04-27T02:31:33.347Z,76.86
2023-04-27T02:32:33.399Z,77.31
2023-04-27T02:33:33.425Z,77.54
2023-04-27T02:34:33.474Z,77.31
2023-04-27T02:35:33.499Z,78.01
2023-04-27T02:36:33.559Z,78.04
2023-04-27T02:37:33.505Z,77.66
2023-04-27T02:38:33.506Z,77.57
2023-04-27T02:39:33.507Z,75.87
2023-04-27T02:40:33.534Z,77.41
2023-04-27T02:41:33.551Z,78.05
2023-04-27T02:42:33.581Z,76.77
2023-04-27T02:43:33.584Z,76.85
2023-04-27T02:44:33.605Z,76.56
2023-04-27T02:45:33.600Z,76.99
2023-04-27T02:46:33.612Z,76.83
2023-04-27T02:47:33.622Z,77.70
2023-04-27T02:48:33.591Z,78.08
2023-04-27T02:49:33.602Z,77.03
2023-04-27T02:50:33.660Z,77.39
2023-04-27T02:51:33.674Z,76.79
2023-04-27T02:52:33.736Z,77.00
2023-04-27T02:53:33.769Z,76.43
2023-04-27T02:54:33.835Z,76.44
2023-04-27T02:55:33.869Z,76.54
2023-04-27T02:56:33.831Z,76.59
2023-04-27T02:57:33.815Z,76.79
2023-04-27T02:58:33.806Z,76.32
2023-04-27T02:59:33.804Z,77.39
2023-04-27T03:00:33.809Z,76.97
2023-04-27T03:01:33.817Z,78.13
2023-04-27T03:02:33.873Z,76.52
2023-04-27T03:03:33.909Z,76.30
2023-04-27T03:04:33.784Z,77.40
2023-04-27T03:05:33.745Z,77.15
2023-04-27T03:06:33.778Z,76.67
2023-04-27T03:07:33.791Z,76.64
2023-04-27T03:08:33.846Z,77.27
2023-04-27T03:09:33.872Z,77.77
2023-04-27T03:10:33.938Z,76.67
2023-04-27T03:11:35.307Z,77.61
2023-04-27T03:12:33.999Z,78.29
2023-04-27T03:13:34.032Z,76.69
2023-04-27T03:14:34.050Z,76.07
2023-04-27T03:15:34.050Z,76.67
2023-04-27T03:16:34.112Z,76.48
2023-04-27T03:17:34.111Z,76.96
2023-04-27T03:18:34.122Z,77.39
2023-04-27T03:19:34.145Z,75.87
2023-04-27T03:20:34.171Z,76.73
2023-04-27T03:21:34.196Z,75.92
2023-04-27T03:22:34.216Z,75.65
2023-04-27T03:23:34.226Z,75.67
2023-04-27T03:24:34.231Z,74.07
2023-04-27T03:25:34.238Z,73.02
2023-04-27T03:26:34.258Z,75.88
2023-04-27T03:27:34.290Z,76.07
2023-04-27T03:28:34.334Z,75.40
2023-04-27T03:29:34.506Z,76.94
2023-04-27T03:30:34.414Z,75.72
2023-04-27T03:31:34.477Z,76.79
2023-04-27T03:32:34.489Z,74.77
2023-04-27T03:33:34.470Z,75.38
2023-04-27T03:34:34.483Z,75.62
2023-04-27T03:35:34.531Z,75.52
2023-04-27T03:36:34.543Z,75.51
2023-04-27T03:37:34.558Z,74.30
2023-04-27T03:38:34.593Z,75.16
2023-04-27T03:39:34.633Z,74.43
2023-04-27T03:40:34.669Z,74.34
2023-04-27T03:41:34.687Z,75.30
2023-04-27T03:42:34.687Z,74.34
2023-04-27T03:43:34.696Z,74.57
2023-04-27T03:44:34.708Z,74.73
2023-04-27T03:45:34.745Z,74.04
2023-04-27T03:46:35.054Z,74.39
2023-04-27T03:47:34.878Z,73.73
2023-04-27T03:48:34.872Z,74.07
2023-04-27T03:49:34.917Z,74.81
2023-04-27T03:50:34.991Z,75.42
2023-04-27T03:51:35.013Z,73.39
2023-04-27T03:52:35.027Z,74.93
2023-04-27T03:53:35.023Z,73.57
2023-04-27T03:54:35.076Z,74.97
2023-04-27T03:55:35.124Z,74.02
2023-04-27T03:56:35.130Z,74.03
2023-04-27T03:57:35.138Z,73.67
2023-04-27T03:58:35.148Z,74.38
2023-04-27T03:59:35.161Z,73.45
2023-04-27T04:00:35.165Z,72.32
2023-04-27T04:01:35.737Z,73.16
2023-04-27T04:02:35.220Z,74.28
2023-04-27T04:03:35.357Z,75.05
2023-04-27T04:04:35.377Z,75.07
2023-04-27T04:05:35.207Z,75.16
2023-04-27T04:06:35.199Z,74.20
2023-04-27T04:07:35.169Z,73.55
2023-04-27T04:08:35.176Z,73.77
2023-04-27T04:09:35.170Z,76.35
2023-04-27T04:10:35.178Z,74.71
2023-04-27T04:11:35.164Z,74.40
2023-04-27T04:12:35.164Z,74.44
2023-04-27T04:13:35.176Z,74.02
2023-04-27T04:14:35.153Z,73.78
2023-04-27T04:15:35.182Z,73.73
2023-04-27T04:16:35.177Z,75.85
2023-04-27T04:17:35.236Z,74.08
2023-04-27T04:18:35.241Z,74.40
2023-04-27T04:19:35.281Z,74.99
2023-04-27T04:20:35.315Z,73.94
2023-04-27T04:21:35.325Z,73.90
2023-04-27T04:22:35.352Z,75.00
2023-04-27T04:23:35.360Z,75.15
2023-04-27T04:24:35.401Z,76.16
2023-04-27T04:25:35.415Z,73.83
2023-04-27T04:26:35.454Z,74.17
2023-04-27T04:27:35.439Z,73.86
2023-04-27T04:28:35.416Z,73.98
2023-04-27T04:29:35.449Z,75.06
2023-04-27T04:30:35.440Z,75.03
2023-04-27T04:31:35.437Z,75.12
2023-04-27T04:32:35.445Z,75.28
2023-04-27T04:33:35.492Z,75.18
2023-04-27T04:34:35.380Z,73.35
2023-04-27T04:35:35.358Z,74.37
2023-04-27T04:36:35.348Z,73.53
2023-04-27T04:37:35.378Z,73.66
2023-04-27T04:38:35.325Z,74.14
2023-04-27T04:39:35.331Z,74.26
2023-04-27T04:40:35.317Z,75.32
2023-04-27T04:41:35.294Z,73.21
2023-04-27T04:42:35.293Z,74.82
2023-04-27T04:43:35.296Z,73.29
2023-04-27T04:44:35.276Z,74.05
2023-04-27T04:45:35.270Z,74.64
2023-04-27T04:46:35.310Z,73.52
2023-04-27T04:47:35.320Z,73.39
2023-04-27T04:48:35.237Z,73.33
2023-04-27T04:49:35.233Z,72.98
2023-04-27T04:50:35.249Z,72.42
2023-04-27T04:51:35.238Z,73.42
2023-04-27T04:52:35.244Z,72.27
2023-04-27T04:53:35.247Z,73.74
2023-04-27T04:54:35.222Z,73.46
2023-04-27T04:55:35.237Z,75.22
2023-04-27T04:56:35.249Z,73.27
2023-04-27T04:57:35.245Z,73.23
2023-04-27T04:58:35.314Z,73.24
2023-04-27T04:59:35.242Z,73.34
2023-04-27T05:00:35.227Z,73.03
2023-04-27T05:01:35.253Z,73.11
2023-04-27T05:02:35.350Z,73.06
2023-04-27T05:03:35.385Z,73.85
2023-04-27T05:04:35.422Z,73.30
2023-04-27T05:05:35.199Z,73.74
2023-04-27T05:06:35.187Z,74.16
2023-04-27T05:07:35.162Z,74.45
2023-04-27T05:08:35.142Z,72.88
2023-04-27T05:09:35.152Z,73.53
2023-04-27T05:10:35.138Z,73.17
2023-04-27T05:11:35.144Z,71.82
2023-04-27T05:12:35.128Z,73.51
2023-04-27T05:13:35.112Z,73.64
2023-04-27T05:14:35.119Z,74.38
2023-04-27T05:15:35.100Z,73.42
2023-04-27T05:16:35.222Z,74.01
2023-04-27T05:17:35.130Z,73.20
2023-04-27T05:18:35.074Z,72.97
2023-04-27T05:19:35.061Z,73.45
2023-04-27T05:20:35.205Z,74.41
2023-04-27T05:21:35.087Z,73.15
2023-04-27T05:22:35.091Z,73.23
2023-04-27T05:23:35.067Z,73.37
2023-04-27T05:24:35.064Z,73.80
2023-04-27T05:25:35.077Z,73.77
2023-04-27T05:26:35.052Z,72.18
2023-04-27T05:27:35.065Z,74.07
2023-04-27T05:28:35.035Z,74.79
2023-04-27T05:29:35.034Z,74.32
2023-04-27T05:30:35.028Z,73.21
2023-04-27T05:31:35.091Z,75.30
2023-04-27T05:32:35.044Z,73.97
2023-04-27T05:33:35.042Z,73.65
2023-04-27T05:34:34.996Z,73.34
2023-04-27T05:35:35.118Z,73.18
2023-04-27T05:36:35.083Z,74.02
2023-04-27T05:37:34.985Z,79.15
2023-04-27T05:38:35.006Z,79.90
2023-04-27T05:39:34.979Z,81.17
2023-04-27T05:40:35.095Z,82.71
2023-04-27T05:41:34.939Z,85.24
2023-04-27T05:42:34.929Z,88.49
2023-04-27T05:43:34.928Z,90.21
2023-04-27T05:44:34.977Z,95.33
2023-04-27T05:45:35.088Z,100.06
2023-04-27T05:46:37.922Z,102.66
2023-04-27T05:47:35.123Z,107.79
2023-04-27T05:48:35.110Z,117.01
2023-04-27T05:49:35.081Z,119.25
2023-04-27T05:50:35.094Z,121.29
2023-04-27T05:51:35.067Z,111.61
2023-04-27T05:52:36.384Z,105.62
2023-04-27T05:53:35.008Z,93.55
2023-04-27T05:54:35.016Z,79.34
2023-04-27T05:55:35.596Z,79.33
2023-04-27T05:56:35.008Z,81.61
2023-04-27T05:57:35.009Z,75.41
2023-04-27T05:58:35.062Z,85.22
2023-04-27T05:59:35.010Z,84.19
2023-04-27T06:00:35.012Z,89.80
2023-04-27T06:01:35.001Z,93.21
2023-04-27T06:02:35.135Z,96.62
2023-04-27T06:03:35.190Z,101.02
2023-04-27T06:04:35.023Z,106.98
2023-04-27T06:05:35.126Z,112.74
2023-04-27T06:06:34.975Z,116.68
2023-04-27T06:07:34.970Z,117.13
2023-04-27T06:08:34.946Z,119.50
2023-04-27T06:09:34.937Z,124.37
2023-04-27T06:10:34.959Z,134.04
2023-04-27T06:11:34.937Z,150.45
2023-04-27T06:12:34.917Z,155.71
2023-04-27T06:13:34.913Z,161.80
2023-04-27T06:14:34.935Z,166.44
2023-04-27T06:15:34.912Z,171.87
2023-04-27T06:16:35.241Z,172.15
2023-04-27T06:17:34.925Z,173.94
2023-04-27T06:18:34.949Z,177.82
2023-04-27T06:19:34.901Z,185.48
2023-04-27T06:20:34.990Z,197.08
2023-04-27T06:21:34.820Z,201.40
2023-04-27T06:22:34.837Z,205.69
2023-04-27T06:23:34.796Z,210.52
2023-04-27T06:24:34.803Z,214.11
2023-04-27T06:25:34.829Z,217.50
2023-04-27T06:26:34.909Z,221.76
2023-04-27T06:27:34.766Z,224.35
2023-04-27T06:28:34.771Z,227.29
2023-04-27T06:29:34.745Z,229.99
2023-04-27T06:30:35.005Z,235.53
2023-04-27T06:31:34.782Z,236.70
2023-04-27T06:32:34.712Z,240.93
2023-04-27T06:33:34.719Z,245.72
2023-04-27T06:34:34.676Z,248.89
2023-04-27T06:35:34.677Z,250.16
2023-04-27T06:36:34.647Z,250.32
2023-04-27T06:37:34.641Z,251.06
2023-04-27T06:38:34.608Z,253.41
2023-04-27T06:39:34.599Z,256.37
2023-04-27T06:40:34.658Z,263.14
2023-04-27T06:41:34.561Z,252.52
2023-04-27T06:42:34.537Z,248.86
2023-04-27T06:43:34.519Z,235.01
2023-04-27T06:44:34.514Z,224.90
2023-04-27T06:45:34.517Z,218.77
2023-04-27T06:46:34.599Z,212.83
2023-04-27T06:47:34.499Z,212.47
2023-04-27T06:48:34.490Z,213.49
2023-04-27T06:49:34.473Z,212.15
2023-04-27T06:50:34.477Z,212.29
2023-04-27T06:51:34.445Z,215.22
2023-04-27T06:52:34.446Z,214.48
2023-04-27T06:53:34.506Z,225.20
2023-04-27T06:54:34.438Z,231.48
2023-04-27T06:55:34.405Z,230.03
2023-04-27T06:56:34.436Z,231.58
2023-04-27T06:57:34.458Z,233.88
2023-04-27T06:58:34.369Z,234.10
2023-04-27T06:59:34.345Z,234.31
2023-04-27T07:00:34.355Z,235.53
2023-04-27T07:01:34.363Z,236.08
2023-04-27T07:02:34.430Z,237.52
2023-04-27T07:03:34.431Z,238.69
2023-04-27T07:04:34.320Z,240.65
2023-04-27T07:05:34.261Z,241.97
2023-04-27T07:06:34.321Z,242.21
2023-04-27T07:07:34.424Z,245.66
2023-04-27T07:08:34.245Z,243.47
2023-04-27T07:09:34.395Z,245.10
2023-04-27T07:10:34.205Z,247.57
2023-04-27T07:11:34.187Z,249.08
2023-04-27T07:12:34.184Z,249.28
2023-04-27T07:13:34.162Z,248.29
2023-04-27T07:14:34.123Z,248.38
2023-04-27T07:15:34.116Z,248.99
2023-04-27T07:16:34.112Z,249.97
2023-04-27T07:17:34.160Z,252.00
2023-04-27T07:18:34.076Z,253.42
2023-04-27T07:19:34.090Z,248.63
2023-04-27T07:20:34.058Z,249.68
2023-04-27T07:21:34.042Z,251.46
2023-04-27T07:22:34.021Z,255.14
2023-04-27T07:23:34.004Z,258.72
2023-04-27T07:24:34.001Z,250.00
2023-04-27T07:25:34.072Z,250.00
2023-04-27T07:26:34.097Z,249.31
2023-04-27T07:27:33.979Z,248.01
2023-04-27T07:28:33.946Z,249.87
2023-04-27T07:29:34.300Z,250.00
2023-04-27T07:30:33.895Z,251.87
2023-04-27T07:31:33.946Z,249.12
2023-04-27T07:32:33.949Z,249.64
2023-04-27T07:33:33.910Z,250.03
2023-04-27T07:34:49.107Z,247.13
2023-04-27T07:35:34.935Z,243.82
2023-04-27T07:36:33.914Z,238.20
2023-04-27T07:37:33.890Z,235.50
2023-04-27T07:38:33.876Z,233.61
2023-04-27T07:39:33.858Z,224.62
2023-04-27T07:40:33.885Z,205.56
2023-04-27T07:41:33.845Z,187.05
2023-04-27T07:42:33.806Z,175.79
2023-04-27T07:43:33.858Z,162.71
2023-04-27T07:44:33.771Z,152.43
2023-04-27T07:45:33.894Z,143.99
2023-04-27T07:46:33.808Z,138.53
2023-04-27T07:47:33.732Z,131.85
2023-04-27T07:48:33.765Z,125.02
2023-04-27T07:49:33.694Z,117.09
2023-04-27T07:50:33.682Z,109.77
2023-04-27T07:51:33.670Z,95.35
2023-04-27T07:52:33.659Z,94.56
2023-04-27T07:53:33.628Z,80.75
2023-04-27T07:54:33.615Z,79.74
2023-04-27T07:55:33.605Z,82.97
2023-04-27T07:56:33.679Z,81.45
2023-04-27T07:57:33.620Z,76.96
2023-04-27T07:58:33.607Z,71.49
2023-04-27T07:59:33.587Z,58.30
2023-04-27T08:00:33.545Z,56.34
2023-04-27T08:01:33.544Z,58.08
2023-04-27T08:02:33.666Z,48.20
2023-04-27T08:03:33.697Z,50.12
2023-04-27T08:04:33.861Z,46.97
2023-04-27T08:05:33.673Z,36.29
2023-04-27T08:06:34.189Z,41.56
2023-04-27T08:07:35.906Z,42.38
2023-04-27T08:08:33.472Z,33.30
2023-04-27T08:09:33.470Z,31.24
2023-04-27T08:10:33.465Z,27.78
2023-04-27T08:11:33.468Z,16.18
2023-04-27T08:12:33.442Z,11.92
2023-04-27T08:13:33.447Z,1.53
2023-04-27T08:14:33.453Z,0.00
2023-04-27T08:15:33.445Z,0.00
2023-04-27T08:16:33.510Z,0.00
2023-04-27T08:17:33.483Z,0.00
2023-04-27T08:18:33.421Z,0.00
2023-04-27T08:19:33.426Z,0.00
2023-04-27T08:20:33.422Z,0.00
2023-04-27T08:21:33.393Z,0.00
2023-04-27T08:22:33.440Z,0.00
2023-04-27T08:23:33.382Z,0.00
2023-04-27T08:24:33.398Z,0.46
2023-04-27T08:25:33.435Z,6.49
2023-04-27T08:26:33.488Z,13.91
2023-04-27T08:27:33.518Z,17.25
2023-04-27T08:28:33.578Z,21.26
2023-04-27T08:29:33.852Z,24.93
2023-04-27T08:30:33.690Z,25.24
2023-04-27T08:31:33.813Z,26.97
2023-04-27T08:32:33.788Z,38.54
2023-04-27T08:33:33.892Z,46.67
2023-04-27T08:34:33.854Z,59.65
2023-04-27T08:35:33.887Z,68.37
2023-04-27T08:36:34.009Z,64.32
2023-04-27T08:37:34.022Z,68.82
2023-04-27T08:38:34.084Z,68.28
2023-04-27T08:39:34.153Z,72.40
2023-04-27T08:40:34.226Z,70.02
2023-04-27T08:41:34.284Z,64.51
2023-04-27T08:42:34.358Z,62.54
2023-04-27T08:43:34.467Z,61.37
2023-04-27T08:44:34.464Z,54.58
2023-04-27T08:45:34.531Z,43.67
2023-04-27T08:46:34.579Z,55.53
2023-04-27T08:47:42.863Z,65.98
2023-04-27T08:48:35.560Z,66.03
2023-04-27T08:49:34.647Z,66.66
2023-04-27T08:50:34.538Z,68.44
2023-04-27T08:51:34.549Z,72.13
2023-04-27T08:52:34.517Z,79.78
2023-04-27T08:53:34.516Z,70.66
2023-04-27T08:54:34.501Z,65.87
2023-04-27T08:55:34.521Z,59.64
2023-04-27T08:56:34.524Z,56.16
2023-04-27T08:57:34.617Z,50.39
2023-04-27T08:58:34.640Z,46.86
2023-04-27T08:59:34.706Z,42.45
2023-04-27T09:00:34.768Z,41.52
2023-04-27T09:01:34.903Z,40.44
2023-04-27T09:02:35.067Z,38.35
2023-04-27T09:03:34.977Z,39.37
2023-04-27T09:04:34.863Z,42.17
2023-04-27T09:05:34.781Z,45.22
2023-04-27T09:06:34.874Z,51.22
2023-04-27T09:07:34.830Z,54.26
2023-04-27T09:08:34.795Z,60.76
2023-04-27T09:09:34.808Z,65.26
2023-04-27T09:10:34.828Z,71.17
2023-04-27T09:11:35.217Z,74.64
2023-04-27T09:12:34.899Z,79.36
2023-04-27T09:13:34.900Z,82.41
2023-04-27T09:14:34.970Z,87.05
2023-04-27T09:15:34.964Z,89.55
2023-04-27T09:16:35.069Z,92.54
2023-04-27T09:17:35.053Z,94.56
2023-04-27T09:18:35.082Z,96.52
2023-04-27T09:19:35.174Z,97.67
2023-04-27T09:20:35.142Z,98.34
2023-04-27T09:21:35.173Z,101.78
2023-04-27T09:22:35.173Z,101.70
2023-04-27T09:23:35.194Z,103.69
2023-04-27T09:24:35.202Z,106.18
2023-04-27T09:25:36.181Z,106.61
2023-04-27T09:26:35.674Z,114.17
2023-04-27T09:27:35.259Z,111.02
2023-04-27T09:28:35.386Z,114.06
2023-04-27T09:29:35.369Z,117.89
2023-04-27T09:30:35.270Z,117.92
2023-04-27T09:31:35.326Z,118.10
2023-04-27T09:32:35.299Z,120.06
2023-04-27T09:33:35.244Z,121.24
2023-04-27T09:34:35.237Z,120.99
2023-04-27T09:35:35.240Z,123.23
2023-04-27T09:36:35.255Z,123.29
2023-04-27T09:37:35.210Z,115.61
2023-04-27T09:38:35.183Z,114.36
2023-04-27T09:39:35.260Z,112.00
2023-04-27T09:40:35.165Z,114.83
2023-04-27T09:41:35.287Z,108.84
2023-04-27T09:42:35.149Z,111.73
2023-04-27T09:43:35.137Z,115.83
2023-04-27T09:44:35.122Z,122.22
2023-04-27T09:45:35.194Z,115.51
2023-04-27T09:46:35.111Z,126.35
2023-04-27T09:47:35.175Z,128.94
2023-04-27T09:48:35.091Z,128.97
2023-04-27T09:49:35.150Z,130.37
2023-04-27T09:50:36.727Z,128.81
2023-04-27T09:51:35.031Z,128.48
2023-04-27T09:52:35.016Z,129.24
2023-04-27T09:53:35.022Z,126.55
2023-04-27T09:54:34.976Z,127.69
2023-04-27T09:55:35.055Z,130.78
2023-04-27T09:56:34.949Z,129.73
2023-04-27T09:57:34.942Z,129.07
2023-04-27T09:58:34.941Z,128.73
2023-04-27T09:59:35.011Z,126.87
2023-04-27T10:00:34.949Z,129.00
2023-04-27T10:01:37.281Z,131.86
2023-04-27T10:02:46.179Z,131.96
2023-04-27T10:03:36.183Z,132.04
2023-04-27T10:04:35.163Z,132.98
2023-04-27T10:05:35.050Z,134.09
2023-04-27T10:06:35.053Z,138.80
2023-04-27T10:07:35.000Z,147.86
2023-04-27T10:08:34.996Z,155.37
2023-04-27T10:09:34.990Z,156.99
2023-04-27T10:10:34.969Z,161.49
2023-04-27T10:11:34.958Z,163.82
2023-04-27T10:12:34.968Z,164.65
2023-04-27T10:13:34.933Z,161.81
2023-04-27T10:14:34.931Z,158.67
2023-04-27T10:15:34.907Z,160.04
2023-04-27T10:16:35.059Z,161.24
2023-04-27T10:17:34.988Z,165.12
2023-04-27T10:18:34.989Z,174.57
2023-04-27T10:19:35.023Z,180.77
2023-04-27T10:20:35.094Z,182.72
2023-04-27T10:21:35.098Z,186.40
2023-04-27T10:22:36.045Z,189.81
2023-04-27T10:23:35.194Z,192.85
2023-04-27T10:24:35.296Z,196.03
2023-04-27T10:25:35.308Z,199.17
2023-04-27T10:26:37.294Z,201.97
2023-04-27T10:27:35.336Z,204.70
2023-04-27T10:28:35.334Z,207.88
2023-04-27T10:29:35.323Z,211.15
2023-04-27T10:30:35.321Z,211.31
2023-04-27T10:31:35.313Z,212.04
2023-04-27T10:32:35.286Z,213.85
2023-04-27T10:33:35.245Z,217.83
2023-04-27T10:34:35.323Z,223.31
2023-04-27T10:35:35.272Z,225.16
2023-04-27T10:36:35.286Z,228.40
2023-04-27T10:37:35.163Z,237.59
2023-04-27T10:38:35.167Z,241.82
2023-04-27T10:39:47.039Z,242.87
2023-04-27T10:40:36.128Z,243.01
2023-04-27T10:41:35.116Z,243.02
2023-04-27T10:42:35.106Z,243.15
2023-04-27T10:43:35.073Z,243.81
2023-04-27T10:44:35.046Z,245.10
2023-04-27T10:45:34.996Z,247.16
2023-04-27T10:46:35.092Z,248.34
2023-04-27T10:47:35.040Z,249.61
2023-04-27T10:48:34.935Z,250.00
2023-04-27T10:49:34.924Z,250.00
2023-04-27T10:50:34.925Z,249.55
2023-04-27T10:51:34.901Z,250.00
2023-04-27T10:52:34.883Z,249.76
2023-04-27T10:53:34.847Z,249.69
2023-04-27T10:54:34.810Z,249.31
2023-04-27T10:55:34.809Z,249.84
2023-04-27T10:56:34.780Z,250.06
2023-04-27T10:57:34.750Z,249.35
2023-04-27T10:58:45.261Z,250.00
2023-04-27T10:59:35.705Z,250.09
2023-04-27T11:00:34.685Z,250.41
2023-04-27T11:01:34.754Z,251.99
2023-04-27T11:02:34.703Z,254.68
2023-04-27T11:03:34.745Z,257.02
2023-04-27T11:04:34.605Z,250.25
2023-04-27T11:05:34.669Z,250.25
2023-04-27T11:06:34.569Z,251.00
2023-04-27T11:07:34.541Z,252.43
2023-04-27T11:08:34.486Z,254.55
2023-04-27T11:09:34.481Z,258.28
2023-04-27T11:10:34.612Z,251.97
2023-04-27T11:11:34.485Z,249.58
2023-04-27T11:12:34.468Z,249.89
2023-04-27T11:13:34.457Z,249.65
2023-04-27T11:14:35.240Z,249.39
2023-04-27T11:15:34.378Z,249.19
2023-04-27T11:16:34.436Z,249.69
2023-04-27T11:17:34.398Z,249.87
2023-04-27T11:18:34.352Z,249.79
2023-04-27T11:19:34.294Z,249.48
2023-04-27T11:20:34.271Z,249.53
2023-04-27T11:21:34.269Z,249.80
2023-04-27T11:22:34.241Z,250.18
2023-04-27T11:23:34.260Z,251.29
2023-04-27T11:24:34.204Z,264.37
2023-04-27T11:25:34.188Z,257.65
2023-04-27T11:26:34.194Z,249.64
2023-04-27T11:27:34.139Z,251.24
2023-04-27T11:28:34.207Z,250.00
2023-04-27T11:29:34.665Z,249.53
2023-04-27T11:30:34.073Z,239.57
2023-04-27T11:31:34.070Z,240.56
2023-04-27T11:32:34.060Z,239.36
2023-04-27T11:33:35.840Z,233.08
2023-04-27T11:34:33.994Z,229.10
2023-04-27T11:35:33.960Z,225.36
2023-04-27T11:36:33.938Z,221.90
2023-04-27T11:37:34.038Z,219.29
2023-04-27T11:38:34.012Z,217.14
2023-04-27T11:39:33.954Z,215.34
2023-04-27T11:40:33.993Z,213.58
2023-04-27T11:41:34.025Z,212.25
2023-04-27T11:42:34.036Z,211.20
2023-04-27T11:43:34.095Z,209.10
2023-04-27T11:44:34.097Z,207.86
2023-04-27T11:45:34.206Z,206.27
2023-04-27T11:46:34.198Z,205.79
2023-04-27T11:47:34.207Z,204.61
2023-04-27T11:48:34.208Z,204.13
2023-04-27T11:49:34.245Z,203.24
2023-04-27T11:50:34.278Z,201.56
2023-04-27T11:51:34.310Z,200.94
2023-04-27T11:52:34.360Z,200.12
2023-04-27T11:53:34.390Z,198.81
2023-04-27T11:54:34.420Z,197.72
2023-04-27T11:55:34.456Z,197.51
2023-04-27T11:56:34.528Z,196.30
2023-04-27T11:57:34.556Z,194.67
2023-04-27T11:58:34.592Z,195.26
2023-04-27T11:59:34.632Z,193.09
2023-04-27T12:00:34.685Z,193.51
2023-04-27T12:01:38.088Z,192.81
2023-04-27T12:02:34.836Z,193.22
2023-04-27T12:03:35.457Z,192.47
2023-04-27T12:04:34.853Z,192.04
2023-04-27T12:05:34.722Z,190.46
2023-04-27T12:06:34.696Z,190.02
2023-04-27T12:07:34.645Z,190.01
2023-04-27T12:08:34.582Z,189.59
2023-04-27T12:09:34.548Z,188.96
2023-04-27T12:10:34.533Z,188.24
2023-04-27T12:11:34.521Z,187.67
2023-04-27T12:12:34.488Z,186.98
2023-04-27T12:13:34.483Z,185.99
2023-04-27T12:14:34.464Z,185.79
2023-04-27T12:15:34.461Z,185.48
2023-04-27T12:16:34.464Z,185.69
2023-04-27T12:17:34.449Z,184.92
2023-04-27T12:18:34.383Z,184.31
2023-04-27T12:19:34.371Z,183.25
2023-04-27T12:20:34.363Z,182.39
2023-04-27T12:21:34.327Z,182.16
2023-04-27T12:22:34.325Z,181.92
2023-04-27T12:23:34.310Z,181.77
2023-04-27T12:24:34.309Z,180.74
2023-04-27T12:25:34.373Z,180.18
2023-04-27T12:26:34.369Z,180.21
2023-04-27T12:27:34.354Z,179.60
2023-04-27T12:28:34.421Z,178.51
2023-04-27T12:29:34.300Z,178.24
2023-04-27T12:30:34.298Z,178.00
2023-04-27T12:31:34.507Z,177.59
2023-04-27T12:32:34.305Z,176.23
2023-04-27T12:33:34.277Z,176.07
2023-04-27T12:34:34.342Z,175.66
2023-04-27T12:35:34.418Z,174.98
2023-04-27T12:36:34.410Z,174.86
2023-04-27T12:37:34.447Z,174.43
2023-04-27T12:38:34.529Z,173.82
2023-04-27T12:39:34.571Z,173.78
2023-04-27T12:40:34.638Z,173.63
2023-04-27T12:41:34.660Z,172.77
2023-04-27T12:42:34.735Z,172.46